Time;durP1;ratioP1;P1;durP2;ratioP2;P2;SDS_P1;SDS_P2;PMS_P1;PMS_P2;Temp;Humidity;BMP_temperature;BMP_pressure;BME280_temperature;BME280_humidity;BME280_pressure;Samples;Min_cycle;Max_cycle;Signal;HPM_P1;HPM_P2
2021/08/03 00:01:04;;;;;;;12.20;11.20;;;12.50;99.90;;;;;;5031047;28;20191;-66
2021/08/03 00:03:36;;;;;;;14.23;12.73;;;12.50;99.90;;;;;;5031218;28;20282;-66
2021/08/03 00:06:12;;;;;;;13.87;12.77;;;12.50;99.90;;;;;;5031371;28;20258;-67
2021/08/03 00:08:52;;;;;;;13.53;12.20;;;12.50;99.90;;;;;;5031017;28;20207;-66
2021/08/03 00:11:18;;;;;;;14.47;13.07;;;12.50;99.90;;;;;;5031264;28;20840;-66
2021/08/03 00:13:44;;;;;;;13.83;12.40;;;12.40;99.90;;;;;;5030777;28;20702;-66
2021/08/03 00:16:11;;;;;;;13.47;12.27;;;12.40;99.90;;;;;;5031331;28;20297;-66
2021/08/03 00:18:39;;;;;;;17.23;12.07;;;12.30;99.90;;;;;;5031231;28;20595;-66
2021/08/03 00:21:07;;;;;;;14.10;12.77;;;12.40;99.90;;;;;;5030839;28;20196;-66
2021/08/03 00:23:32;;;;;;;13.00;11.83;;;12.40;99.90;;;;;;5030797;28;20329;-66
2021/08/03 00:25:59;;;;;;;14.43;13.13;;;12.40;99.90;;;;;;5031100;28;20254;-66
2021/08/03 00:28:25;;;;;;;16.50;13.70;;;12.40;99.90;;;;;;5031087;28;20613;-66
2021/08/03 00:30:51;;;;;;;14.20;12.80;;;12.40;99.90;;;;;;5030671;28;20695;-66
2021/08/03 00:33:18;;;;;;;13.60;12.30;;;12.50;99.90;;;;;;5031027;28;20184;-66
2021/08/03 00:35:47;;;;;;;14.60;13.10;;;12.60;99.90;;;;;;5031159;28;20195;-67
2021/08/03 00:38:13;;;;;;;15.20;13.63;;;12.60;99.90;;;;;;5030846;28;20274;-66
2021/08/03 00:40:47;;;;;;;14.27;12.97;;;12.70;99.90;;;;;;5030731;28;20625;-66
2021/08/03 00:43:12;;;;;;;14.67;13.20;;;12.80;99.90;;;;;;5034616;28;20191;-66
2021/08/03 00:45:38;;;;;;;15.53;12.93;;;12.80;99.90;;;;;;5034564;28;20587;-66
2021/08/03 00:48:04;;;;;;;14.60;13.00;;;12.80;99.90;;;;;;5034520;28;20675;-66
2021/08/03 00:50:30;;;;;;;14.90;13.43;;;12.90;99.90;;;;;;5034186;28;20183;-66
2021/08/03 00:52:55;;;;;;;15.30;13.43;;;13.00;99.90;;;;;;5034414;28;20179;-66
2021/08/03 00:55:21;;;;;;;13.93;12.57;;;13.00;99.90;;;;;;5034620;28;20258;-66
2021/08/03 00:57:48;;;;;;;13.67;12.47;;;13.00;99.90;;;;;;5034098;28;20183;-66
2021/08/03 01:00:14;;;;;;;13.83;12.67;;;13.00;99.90;;;;;;5034313;28;20175;-66
2021/08/03 01:02:40;;;;;;;13.30;11.93;;;13.10;99.90;;;;;;5034340;28;20206;-66
2021/08/03 01:05:06;;;;;;;12.83;11.73;;;13.10;99.90;;;;;;5034105;28;20249;-66
2021/08/03 01:07:35;;;;;;;12.83;11.63;;;13.10;99.90;;;;;;5033901;28;20207;-66
2021/08/03 01:10:21;;;;;;;14.27;12.20;;;13.20;99.90;;;;;;5033996;28;20174;-66
2021/08/03 01:13:14;;;;;;;13.27;11.97;;;13.20;99.90;;;;;;5034181;28;20188;-66
2021/08/03 01:15:56;;;;;;;12.90;11.87;;;13.20;99.90;;;;;;5063744;28;20164;-66
2021/08/03 01:18:30;;;;;;;13.47;12.07;;;13.10;99.90;;;;;;5033976;28;20645;-66
2021/08/03 01:21:46;;;;;;;13.10;11.77;;;13.20;99.90;;;;;;5033797;28;20365;-66
2021/08/03 01:24:12;;;;;;;14.87;13.00;;;13.20;99.90;;;;;;4991982;28;20188;-66
2021/08/03 01:26:46;;;;;;;13.27;12.17;;;13.20;99.90;;;;;;5008737;28;20177;-66
2021/08/03 01:29:14;;;;;;;14.00;12.70;;;13.20;99.90;;;;;;5013555;28;20692;-66
2021/08/03 01:31:48;;;;;;;14.83;13.33;;;13.30;99.90;;;;;;5033747;28;20278;-67
2021/08/03 01:34:16;;;;;;;14.83;13.50;;;13.40;99.90;;;;;;5033580;28;20270;-66
2021/08/03 01:36:46;;;;;;;13.60;12.23;;;13.50;99.90;;;;;;5034027;28;20172;-66
2021/08/03 01:39:15;;;;;;;13.53;12.23;;;13.40;99.90;;;;;;5032214;28;20187;-66
2021/08/03 01:41:44;;;;;;;13.53;12.20;;;13.40;99.90;;;;;;5033287;28;20206;-67
2021/08/03 01:44:12;;;;;;;13.50;12.20;;;13.50;99.90;;;;;;5033596;28;20273;-66
2021/08/03 01:46:40;;;;;;;11.87;10.87;;;13.40;99.90;;;;;;5033614;28;20203;-66
2021/08/03 01:49:07;;;;;;;12.03;10.93;;;13.40;99.90;;;;;;5033502;28;20203;-66
2021/08/03 01:51:33;;;;;;;11.17;10.37;;;13.40;99.90;;;;;;5032988;28;20192;-66
2021/08/03 01:53:59;;;;;;;12.47;11.37;;;13.40;99.90;;;;;;5032557;28;20203;-66
2021/08/03 01:56:25;;;;;;;12.90;11.53;;;13.40;99.90;;;;;;5033284;28;20179;-66
2021/08/03 01:58:52;;;;;;;13.33;11.53;;;13.50;99.90;;;;;;5064999;28;20237;-66
2021/08/03 02:01:21;;;;;;;11.67;10.53;;;13.60;99.90;;;;;;5032879;28;20696;-66
2021/08/03 02:03:48;;;;;;;11.77;10.57;;;13.60;99.90;;;;;;5033250;28;20211;-66
2021/08/03 02:06:15;;;;;;;14.03;10.40;;;13.50;99.90;;;;;;5032978;28;20470;-66
2021/08/03 02:08:42;;;;;;;13.30;10.70;;;13.70;99.90;;;;;;5033272;28;20234;-66
2021/08/03 02:11:08;;;;;;;12.77;11.63;;;13.70;99.90;;;;;;5032823;28;20604;-67
2021/08/03 02:13:34;;;;;;;12.23;11.17;;;13.80;99.90;;;;;;5031710;28;20226;-66
2021/08/03 02:16:00;;;;;;;12.43;11.23;;;13.90;99.90;;;;;;5032988;28;20172;-66
2021/08/03 02:18:26;;;;;;;11.90;10.80;;;13.90;99.90;;;;;;5032913;28;20664;-66
2021/08/03 02:20:53;;;;;;;12.40;11.27;;;13.90;99.90;;;;;;5031705;28;20196;-68
2021/08/03 02:23:19;;;;;;;13.37;10.63;;;13.90;99.90;;;;;;5033174;28;20270;-68
2021/08/03 02:25:44;;;;;;;11.83;10.73;;;13.90;99.90;;;;;;5032561;28;20266;-70
2021/08/03 02:28:10;;;;;;;11.47;10.47;;;14.00;99.90;;;;;;5032493;28;20755;-67
2021/08/03 02:30:36;;;;;;;11.43;10.33;;;13.90;99.90;;;;;;5033543;28;20163;-67
2021/08/03 02:33:23;;;;;;;12.03;10.93;;;13.90;99.90;;;;;;5033769;28;20175;-70
2021/08/03 02:36:06;;;;;;;11.67;9.83;;;13.80;99.90;;;;;;5034162;28;20171;-71
2021/08/03 02:38:36;;;;;;;11.80;9.53;;;13.80;99.90;;;;;;5032713;28;20530;-70
2021/08/03 02:41:03;;;;;;;11.70;10.50;;;13.80;99.90;;;;;;5033607;28;20294;-70
2021/08/03 02:43:32;;;;;;;10.90;9.90;;;13.90;99.90;;;;;;5065608;28;20183;-69
2021/08/03 02:46:01;;;;;;;11.83;10.73;;;13.90;99.90;;;;;;5065561;28;20198;-70
2021/08/03 02:48:28;;;;;;;11.50;10.47;;;14.00;99.90;;;;;;5033556;28;20699;-70
2021/08/03 02:50:54;;;;;;;10.73;9.93;;;14.00;99.90;;;;;;5031930;28;20187;-67
2021/08/03 02:53:25;;;;;;;11.73;10.73;;;14.00;99.90;;;;;;5033447;28;20654;-68
2021/08/03 02:55:56;;;;;;;11.27;10.23;;;14.00;99.90;;;;;;5031467;28;20171;-66
2021/08/03 02:58:32;;;;;;;11.77;10.73;;;14.10;99.90;;;;;;5030921;28;20179;-66
2021/08/03 03:01:00;;;;;;;11.57;10.57;;;14.10;99.90;;;;;;5032105;28;20191;-66
2021/08/03 03:03:29;;;;;;;11.33;10.07;;;14.10;99.90;;;;;;5030773;28;20182;-66
2021/08/03 03:05:59;;;;;;;10.93;9.80;;;14.10;99.90;;;;;;5046221;28;20172;-66
2021/08/03 03:08:28;;;;;;;11.83;10.73;;;14.10;99.90;;;;;;5030670;28;20233;-66
2021/08/03 03:10:56;;;;;;;11.90;10.80;;;14.20;99.90;;;;;;5030734;28;20592;-66
2021/08/03 03:13:24;;;;;;;11.87;10.77;;;14.20;99.90;;;;;;5030794;28;20233;-66
2021/08/03 03:15:52;;;;;;;13.00;11.80;;;14.20;99.90;;;;;;5030852;28;20178;-67
2021/08/03 03:18:20;;;;;;;13.23;11.83;;;14.20;99.90;;;;;;5030807;28;20237;-66
2021/08/03 03:20:47;;;;;;;13.40;11.83;;;14.20;99.90;;;;;;5030910;28;20186;-66
2021/08/03 03:23:16;;;;;;;12.60;11.40;;;14.10;99.90;;;;;;5030485;28;20207;-66
2021/08/03 03:25:44;;;;;;;12.97;11.67;;;14.20;99.90;;;;;;5014270;28;20183;-66
2021/08/03 03:28:12;;;;;;;12.47;11.47;;;14.10;99.90;;;;;;5030500;28;20290;-66
2021/08/03 03:30:39;;;;;;;12.67;11.40;;;14.10;99.90;;;;;;5030560;28;20543;-66
2021/08/03 03:33:06;;;;;;;12.90;11.77;;;14.10;99.90;;;;;;5030480;28;20210;-66
2021/08/03 03:35:34;;;;;;;15.67;11.83;;;14.10;99.90;;;;;;5031788;28;20205;-67
2021/08/03 03:38:00;;;;;;;12.00;10.90;;;14.10;99.90;;;;;;5031408;28;20191;-66
2021/08/03 03:40:26;;;;;;;13.23;11.83;;;14.10;99.90;;;;;;5031430;28;20533;-66
2021/08/03 03:42:55;;;;;;;12.30;11.00;;;14.00;99.90;;;;;;5092303;23;20630;-64
2021/08/03 03:45:21;;;;;;;12.50;10.80;;;14.00;99.90;;;;;;5051513;28;20642;-65
2021/08/03 03:48:10;;;;;;;13.77;11.87;;;14.00;99.90;;;;;;5051432;28;20198;-66
2021/08/03 03:50:45;;;;;;;12.90;11.80;;;14.00;99.90;;;;;;5050693;28;20182;-65
2021/08/03 03:53:22;;;;;;;14.03;12.27;;;13.90;99.90;;;;;;5031480;28;20191;-66
2021/08/03 03:55:52;;;;;;;12.50;11.33;;;13.90;99.90;;;;;;5031112;28;20298;-64
2021/08/03 03:58:18;;;;;;;12.37;11.37;;;13.90;99.90;;;;;;5031486;28;20171;-65
2021/08/03 04:00:44;;;;;;;13.13;11.93;;;13.90;99.90;;;;;;5031102;28;20246;-65
2021/08/03 04:03:11;;;;;;;14.17;12.03;;;13.90;99.90;;;;;;5031471;28;20644;-65
2021/08/03 04:05:40;;;;;;;13.17;11.97;;;13.90;99.90;;;;;;5031337;28;20167;-66
2021/08/03 04:08:08;;;;;;;13.47;12.17;;;13.80;99.90;;;;;;5031051;28;20199;-65
2021/08/03 04:10:35;;;;;;;12.77;11.77;;;13.90;99.90;;;;;;5031052;28;20229;-65
2021/08/03 04:13:02;;;;;;;13.13;11.93;;;13.90;99.90;;;;;;5030995;28;20577;-66
2021/08/03 04:15:28;;;;;;;15.70;14.30;;;13.90;99.90;;;;;;5030850;28;20179;-65
2021/08/03 04:17:54;;;;;;;15.07;13.70;;;13.90;99.90;;;;;;5034628;28;20183;-65
2021/08/03 04:20:20;;;;;;;15.40;14.00;;;13.90;99.90;;;;;;5034932;28;20263;-64
2021/08/03 04:22:47;;;;;;;16.17;13.77;;;14.00;99.90;;;;;;5034028;28;20282;-65
2021/08/03 04:25:12;;;;;;;15.77;14.27;;;13.90;99.90;;;;;;5035049;28;20592;-65
2021/08/03 04:27:38;;;;;;;16.07;14.43;;;14.00;99.90;;;;;;5034467;28;20203;-65
2021/08/03 04:30:07;;;;;;;16.37;14.63;;;14.00;99.90;;;;;;5034732;28;20168;-66
2021/08/03 04:32:33;;;;;;;16.40;14.90;;;14.00;99.90;;;;;;5034662;28;20289;-65
2021/08/03 04:34:58;;;;;;;16.17;14.73;;;13.90;99.90;;;;;;5034836;28;20199;-65
2021/08/03 04:37:24;;;;;;;16.57;15.00;;;14.00;99.90;;;;;;5034778;28;20721;-65
2021/08/03 04:39:49;;;;;;;19.50;15.57;;;14.00;99.90;;;;;;5033471;28;20175;-66
2021/08/03 04:42:15;;;;;;;16.77;15.07;;;14.10;99.90;;;;;;5034334;28;20211;-66
2021/08/03 04:44:41;;;;;;;17.43;15.37;;;14.10;99.90;;;;;;5034925;28;20539;-65
2021/08/03 04:47:06;;;;;;;16.63;15.17;;;14.10;99.90;;;;;;5034353;28;20179;-66
2021/08/03 04:49:32;;;;;;;15.70;14.20;;;14.10;99.90;;;;;;5034318;28;20179;-66
2021/08/03 04:51:59;;;;;;;16.87;15.27;;;14.10;99.90;;;;;;5034037;28;20282;-65
2021/08/03 04:54:25;;;;;;;16.40;14.93;;;14.10;99.90;;;;;;5034668;28;20171;-66
2021/08/03 04:56:51;;;;;;;16.57;15.07;;;14.20;99.90;;;;;;5034378;28;20198;-66
2021/08/03 04:59:17;;;;;;;16.73;15.23;;;14.20;99.90;;;;;;5034433;28;20539;-66
2021/08/03 05:01:42;;;;;;;19.17;16.03;;;14.20;99.90;;;;;;5033998;28;20199;-66
2021/08/03 05:04:08;;;;;;;16.70;15.17;;;14.30;99.90;;;;;;5034316;28;20262;-66
2021/08/03 05:06:33;;;;;;;16.83;15.13;;;14.30;99.90;;;;;;5034454;28;20175;-66
2021/08/03 05:08:59;;;;;;;16.13;14.53;;;14.40;99.90;;;;;;5033776;28;20293;-65
2021/08/03 05:11:25;;;;;;;15.50;14.10;;;14.50;99.90;;;;;;5033936;28;20241;-67
2021/08/03 05:13:50;;;;;;;16.40;14.73;;;14.50;99.90;;;;;;5033713;28;20233;-67
2021/08/03 05:16:16;;;;;;;16.17;14.77;;;14.50;99.90;;;;;;5034241;28;20199;-66
2021/08/03 05:18:42;;;;;;;16.83;14.10;;;14.50;99.90;;;;;;5033934;28;20543;-66
2021/08/03 05:21:07;;;;;;;15.93;14.40;;;14.50;99.90;;;;;;5033799;28;20249;-67
2021/08/03 05:23:33;;;;;;;15.87;14.30;;;14.60;99.90;;;;;;5032459;28;20183;-66
2021/08/03 05:25:58;;;;;;;16.40;14.77;;;14.60;99.90;;;;;;5033857;28;20174;-66
2021/08/03 05:28:24;;;;;;;16.83;15.33;;;14.60;99.90;;;;;;5032759;28;20199;-66
2021/08/03 05:30:49;;;;;;;14.97;13.50;;;14.50;99.90;;;;;;5033638;28;20175;-66
2021/08/03 05:33:15;;;;;;;16.03;14.40;;;14.50;99.90;;;;;;5033614;28;20214;-66
2021/08/03 05:35:42;;;;;;;15.00;13.50;;;14.50;99.90;;;;;;5033868;28;20656;-66
2021/08/03 05:38:08;;;;;;;16.10;14.10;;;14.60;99.90;;;;;;5033423;28;20183;-66
2021/08/03 05:40:34;;;;;;;15.07;13.77;;;14.60;99.90;;;;;;5033686;28;20176;-66
2021/08/03 05:43:00;;;;;;;14.60;13.00;;;14.60;99.90;;;;;;5033425;28;20581;-66
2021/08/03 05:45:27;;;;;;;14.87;13.30;;;14.70;99.90;;;;;;5033532;28;20254;-66
2021/08/03 05:47:53;;;;;;;15.17;13.63;;;14.70;99.90;;;;;;5033503;28;20745;-66
2021/08/03 05:50:18;;;;;;;16.30;14.80;;;14.80;99.90;;;;;;5033310;28;20524;-66
2021/08/03 05:52:44;;;;;;;14.13;13.00;;;14.90;99.90;;;;;;5033082;28;20278;-67
2021/08/03 05:55:10;;;;;;;17.67;14.17;;;15.00;99.90;;;;;;5033403;28;20756;-67
2021/08/03 05:57:35;;;;;;;14.63;13.33;;;15.10;99.90;;;;;;5033292;28;20194;-66
2021/08/03 06:00:02;;;;;;;14.63;13.23;;;15.20;99.90;;;;;;5032944;28;20679;-65
2021/08/03 06:02:27;;;;;;;13.47;12.20;;;15.20;99.90;;;;;;5033045;28;20250;-66
2021/08/03 06:04:54;;;;;;;13.40;12.20;;;15.30;99.90;;;;;;5033255;28;20203;-65
2021/08/03 06:07:23;;;;;;;14.60;12.87;;;15.40;99.90;;;;;;5032975;28;20242;-66
2021/08/03 06:09:52;;;;;;;12.93;11.93;;;15.30;99.90;;;;;;5032786;28;20179;-66
2021/08/03 06:12:20;;;;;;;12.80;11.67;;;15.30;99.90;;;;;;5033169;28;20192;-66
2021/08/03 06:14:48;;;;;;;12.10;11.10;;;15.40;99.90;;;;;;5033078;28;20171;-65
2021/08/03 06:17:14;;;;;;;12.60;11.53;;;15.40;99.90;;;;;;5032664;28;20172;-65
2021/08/03 06:19:46;;;;;;;12.87;11.77;;;15.40;99.90;;;;;;5032940;28;20535;-66
2021/08/03 06:22:12;;;;;;;12.77;11.67;;;15.40;99.90;;;;;;5032415;28;20685;-65
2021/08/03 06:24:39;;;;;;;12.73;11.43;;;15.40;99.90;;;;;;5033024;28;20164;-66
2021/08/03 06:27:09;;;;;;;13.83;12.50;;;15.50;99.90;;;;;;5032695;28;20172;-66
2021/08/03 06:29:37;;;;;;;13.27;12.00;;;15.50;99.90;;;;;;5032534;28;20183;-66
2021/08/03 06:32:03;;;;;;;12.67;11.47;;;15.60;99.90;;;;;;5032267;28;20707;-66
2021/08/03 06:34:30;;;;;;;14.57;13.27;;;15.70;99.90;;;;;;5032869;28;20167;-66
2021/08/03 06:36:55;;;;;;;12.23;11.13;;;15.60;99.90;;;;;;5032322;28;20167;-65
2021/08/03 06:39:22;;;;;;;12.90;11.90;;;15.50;99.90;;;;;;5030762;28;20182;-65
2021/08/03 06:41:48;;;;;;;14.33;12.93;;;15.40;99.90;;;;;;5030599;28;20218;-65
2021/08/03 06:44:33;;;;;;;13.00;11.70;;;15.40;99.90;;;;;;5032376;28;20242;-66
2021/08/03 06:46:59;;;;;;;13.80;12.60;;;15.30;99.90;;;;;;5030674;28;20191;-65
2021/08/03 06:49:30;;;;;;;12.80;11.80;;;15.20;99.90;;;;;;5032142;28;20207;-65
2021/08/03 06:51:57;;;;;;;13.83;12.70;;;15.20;99.90;;;;;;5031609;28;20187;-66
2021/08/03 06:54:28;;;;;;;12.93;11.83;;;15.10;99.90;;;;;;5032236;28;20168;-65
2021/08/03 06:57:01;;;;;;;14.70;13.20;;;15.20;99.90;;;;;;5032063;28;20187;-67
2021/08/03 06:59:32;;;;;;;13.30;12.10;;;15.30;99.90;;;;;;5031900;28;20201;-66
2021/08/03 07:02:06;;;;;;;13.73;12.27;;;15.50;99.90;;;;;;5031552;28;20203;-66
2021/08/03 07:04:50;;;;;;;13.83;12.50;;;15.60;99.90;;;;;;5032342;28;20727;-67
2021/08/03 07:07:19;;;;;;;14.63;13.27;;;15.70;99.90;;;;;;5031716;28;20249;-66
2021/08/03 07:09:44;;;;;;;15.53;13.93;;;15.80;99.90;;;;;;5031490;28;20207;-66
2021/08/03 07:12:13;;;;;;;15.37;13.83;;;15.90;99.90;;;;;;5031557;28;20230;-66
2021/08/03 07:14:40;;;;;;;14.53;13.13;;;16.10;99.90;;;;;;5031872;28;20180;-66
2021/08/03 07:17:10;;;;;;;13.20;11.90;;;16.30;99.90;;;;;;5031581;28;20544;-66
2021/08/03 07:19:37;;;;;;;13.93;12.60;;;16.50;99.90;;;;;;5031521;28;20175;-66
2021/08/03 07:22:04;;;;;;;13.73;12.33;;;16.50;99.90;;;;;;5031182;28;20191;-66
2021/08/03 07:24:31;;;;;;;14.33;11.80;;;16.50;99.90;;;;;;5031699;28;20183;-65
2021/08/03 07:26:57;;;;;;;13.10;11.80;;;16.50;99.90;;;;;;5031668;28;20171;-66
2021/08/03 07:29:24;;;;;;;14.87;13.47;;;16.50;99.90;;;;;;5031095;28;20250;-67
2021/08/03 07:31:50;;;;;;;15.27;13.70;;;16.50;99.90;;;;;;5030161;28;20663;-66
2021/08/03 07:34:15;;;;;;;13.10;11.73;;;16.50;99.90;;;;;;5030053;28;20218;-66
2021/08/03 07:36:41;;;;;;;13.30;12.10;;;16.50;99.90;;;;;;5031496;28;20168;-66
2021/08/03 07:39:08;;;;;;;14.03;12.73;;;16.50;99.90;;;;;;5031216;28;20187;-66
2021/08/03 07:41:35;;;;;;;13.30;11.77;;;16.50;99.90;;;;;;5029765;28;20215;-66
2021/08/03 07:44:01;;;;;;;13.53;11.83;;;16.60;99.90;;;;;;5030552;28;20179;-65
2021/08/03 07:46:29;;;;;;;12.77;11.73;;;16.80;99.90;;;;;;5031141;28;20712;-66
2021/08/03 07:48:56;;;;;;;13.67;12.53;;;17.10;99.90;;;;;;5030985;28;20202;-66
2021/08/03 07:51:21;;;;;;;12.60;11.40;;;17.30;99.90;;;;;;5030404;28;20195;-66
2021/08/03 07:53:48;;;;;;;11.17;10.27;;;17.70;99.90;;;;;;5031397;28;20710;-65
2021/08/03 07:56:18;;;;;;;10.47;9.37;;;18.00;99.90;;;;;;5029934;28;20172;-65
2021/08/03 07:58:44;;;;;;;9.87;8.97;;;18.80;99.90;;;;;;5011691;28;20271;-66
2021/08/03 08:01:10;;;;;;;10.43;9.53;;;19.30;99.90;;;;;;5024661;28;20547;-66
2021/08/03 08:03:37;;;;;;;10.23;9.33;;;19.60;99.90;;;;;;5031371;28;20176;-66
2021/08/03 08:06:04;;;;;;;9.27;8.63;;;19.90;99.90;;;;;;5030865;28;20266;-65
2021/08/03 08:08:30;;;;;;;10.13;9.37;;;20.00;99.90;;;;;;5031265;28;20199;-66
2021/08/03 08:10:56;;;;;;;10.27;9.37;;;20.00;99.90;;;;;;5030513;28;20270;-67
2021/08/03 08:13:22;;;;;;;10.20;9.50;;;20.00;99.90;;;;;;5031308;28;20258;-66
2021/08/03 08:15:47;;;;;;;10.17;9.47;;;19.70;99.90;;;;;;5030876;28;20179;-65
2021/08/03 08:18:13;;;;;;;11.07;10.13;;;19.60;99.90;;;;;;5030920;28;20567;-66
2021/08/03 08:20:40;;;;;;;10.37;9.70;;;19.60;99.90;;;;;;5030567;28;20286;-66
2021/08/03 08:23:07;;;;;;;10.97;10.23;;;19.50;99.90;;;;;;5031045;28;20240;-66
2021/08/03 08:25:33;;;;;;;10.60;9.63;;;19.50;99.90;;;;;;5030817;28;20199;-67
2021/08/03 08:27:58;;;;;;;10.43;9.43;;;19.60;99.90;;;;;;5030733;28;20677;-66
2021/08/03 08:30:24;;;;;;;9.37;8.67;;;19.80;99.90;;;;;;5030529;28;20525;-66
2021/08/03 08:32:50;;;;;;;9.60;8.77;;;20.10;99.90;;;;;;5031160;28;20188;-66
2021/08/03 08:35:15;;;;;;;10.10;9.20;;;20.50;99.90;;;;;;5030723;28;20176;-66
2021/08/03 08:37:41;;;;;;;9.20;8.47;;;20.80;99.90;;;;;;5030978;28;20172;-66
2021/08/03 08:40:08;;;;;;;8.20;7.67;;;21.10;99.90;;;;;;5030250;28;20219;-67
2021/08/03 08:42:35;;;;;;;8.40;7.60;;;21.20;99.90;;;;;;5031183;28;20673;-66
2021/08/03 08:45:03;;;;;;;9.37;8.67;;;21.30;99.90;;;;;;5030877;28;20168;-66
2021/08/03 08:47:29;;;;;;;8.50;7.70;;;21.50;99.90;;;;;;5030678;28;20707;-66
2021/08/03 08:50:02;;;;;;;8.40;7.32;;;21.80;99.90;;;;;;5030136;28;20171;-67
2021/08/03 08:52:28;;;;;;;7.68;7.10;;;22.40;99.90;;;;;;5030090;28;20210;-66
2021/08/03 08:54:54;;;;;;;6.85;6.45;;;23.20;99.90;;;;;;5029859;28;20255;-66
2021/08/03 08:57:20;;;;;;;7.20;6.53;;;23.80;99.90;;;;;;5030910;28;20175;-67
2021/08/03 08:59:45;;;;;;;7.18;6.65;;;24.20;99.90;;;;;;5030336;28;20538;-66
2021/08/03 09:02:12;;;;;;;7.45;6.90;;;23.90;99.90;;;;;;5030516;28;20664;-65
2021/08/03 09:04:43;;;;;;;6.88;6.28;;;23.40;99.90;;;;;;5032329;28;20175;-67
2021/08/03 09:07:09;;;;;;;7.18;6.60;;;23.60;99.90;;;;;;5014423;28;20168;-66
2021/08/03 09:09:52;;;;;;;6.72;6.22;;;23.90;99.90;;;;;;5014239;28;20242;-65
2021/08/03 09:12:34;;;;;;;6.93;6.22;;;23.70;99.90;;;;;;5034083;28;20345;-66
2021/08/03 09:15:00;;;;;;;7.18;6.70;;;23.30;99.90;;;;;;5033711;28;20679;-66
2021/08/03 09:17:28;;;;;;;6.10;5.60;;;23.50;99.90;;;;;;5034266;28;20214;-65
2021/08/03 09:19:55;;;;;;;6.30;5.80;;;23.60;99.90;;;;;;5033443;28;20164;-67
2021/08/03 09:22:23;;;;;;;6.07;5.57;;;23.90;99.90;;;;;;5014258;28;20200;-66
2021/08/03 09:25:10;;;;;;;6.60;6.10;;;24.10;99.90;;;;;;5014273;28;20536;-66
2021/08/03 09:27:39;;;;;;;6.45;5.93;;;24.10;99.90;;;;;;5014280;28;20253;-65
2021/08/03 09:30:06;;;;;;;6.40;5.90;;;23.80;99.90;;;;;;5013732;28;20172;-67
2021/08/03 09:32:34;;;;;;;6.65;6.07;;;24.00;99.90;;;;;;5032551;28;20385;-66
2021/08/03 09:35:20;;;;;;;6.45;6.05;;;24.00;99.90;;;;;;5033701;28;20171;-67
2021/08/03 09:37:47;;;;;;;6.90;6.40;;;23.60;99.90;;;;;;5014008;28;20176;-66
2021/08/03 09:40:33;;;;;;;6.93;6.43;;;23.40;99.90;;;;;;5013638;28;20262;-65
2021/08/03 09:45:28;;;;;;;7.65;7.05;;;24.00;99.90;;;;;;5050817;28;20545;-65
2021/08/03 09:48:16;;;;;;;7.22;6.63;;;23.80;99.90;;;;;;5052906;28;20205;-66
2021/08/03 09:50:55;;;;;;;6.93;6.43;;;23.20;99.90;;;;;;5035338;28;20167;-65
2021/08/03 09:53:40;;;;;;;6.93;6.53;;;23.10;99.90;;;;;;5048087;28;20191;-66
2021/08/03 09:56:07;;;;;;;7.13;6.63;;;23.10;99.90;;;;;;5033213;28;20170;-65
2021/08/03 09:58:47;;;;;;;6.93;6.45;;;23.10;99.90;;;;;;5039118;28;20179;-65
2021/08/03 10:01:22;;;;;;;7.35;6.68;;;22.70;99.90;;;;;;5052860;28;20175;-65
2021/08/03 10:03:50;;;;;;;6.68;6.18;;;22.60;99.90;;;;;;5044360;28;20182;-65
2021/08/03 10:06:17;;;;;;;6.40;6.00;;;22.50;99.90;;;;;;5033408;28;20687;-65
2021/08/03 10:08:43;;;;;;;7.05;6.50;;;22.60;99.90;;;;;;5053057;28;20202;-65
2021/08/03 10:11:09;;;;;;;6.60;6.13;;;22.50;99.90;;;;;;5052961;28;20654;-65
2021/08/03 10:13:35;;;;;;;7.47;6.97;;;22.20;99.90;;;;;;5033482;28;20645;-65
2021/08/03 10:16:01;;;;;;;7.25;6.68;;;22.40;99.90;;;;;;5032137;28;20206;-65
2021/08/03 10:18:26;;;;;;;6.85;6.30;;;22.50;99.90;;;;;;5049955;28;20550;-65
2021/08/03 10:20:52;;;;;;;7.43;6.88;;;22.40;99.90;;;;;;5052162;28;20167;-65
2021/08/03 10:23:20;;;;;;;7.60;7.00;;;22.10;99.90;;;;;;5037392;28;20210;-65
2021/08/03 10:25:46;;;;;;;7.10;6.70;;;21.80;99.90;;;;;;5032884;28;20258;-65
2021/08/03 10:28:22;;;;;;;8.60;8.10;;;21.50;99.90;;;;;;5045915;28;20698;-65
2021/08/03 10:30:48;;;;;;;7.07;6.47;;;21.20;99.90;;;;;;5052334;28;20254;-65
2021/08/03 10:33:40;;;;;;;6.90;6.40;;;21.00;99.90;;;;;;5038591;28;20634;-65
2021/08/03 10:36:06;;;;;;;7.30;6.70;;;20.70;99.90;;;;;;5032139;28;20171;-65
2021/08/03 10:38:32;;;;;;;8.70;8.10;;;20.40;99.90;;;;;;5046508;28;20281;-65
2021/08/03 10:41:04;;;;;;;8.30;7.70;;;20.30;99.90;;;;;;5052211;28;20171;-65
2021/08/03 10:43:37;;;;;;;8.90;8.10;;;20.20;99.90;;;;;;5037460;28;20286;-65
2021/08/03 10:46:08;;;;;;;7.77;7.27;;;20.00;99.90;;;;;;5032144;28;20175;-65
2021/08/03 10:48:37;;;;;;;8.33;7.83;;;20.20;99.90;;;;;;5046711;28;20206;-65
2021/08/03 10:51:18;;;;;;;7.70;7.10;;;20.20;99.90;;;;;;5051732;28;20181;-65
2021/08/03 10:54:04;;;;;;;8.90;8.33;;;20.20;99.90;;;;;;5036600;28;20194;-65
2021/08/03 10:56:53;;;;;;;8.57;7.97;;;20.20;99.90;;;;;;5032244;28;20232;-65
2021/08/03 10:59:32;;;;;;;8.63;8.03;;;20.20;99.90;;;;;;5032089;28;20608;-66
2021/08/03 11:01:58;;;;;;;7.93;7.33;;;20.30;99.90;;;;;;5031745;28;20194;-65
2021/08/03 11:04:46;;;;;;;8.60;7.80;;;20.30;99.90;;;;;;5051608;28;20185;-65
2021/08/03 11:07:27;;;;;;;8.03;7.43;;;20.30;99.90;;;;;;5050414;28;20171;-65
2021/08/03 11:10:14;;;;;;;6.70;6.30;;;20.30;99.90;;;;;;5031551;28;20182;-65
2021/08/03 11:12:45;;;;;;;7.70;7.20;;;20.40;99.90;;;;;;5036398;28;20563;-64
2021/08/03 11:15:30;;;;;;;7.50;6.83;;;20.30;99.90;;;;;;5051612;28;20171;-65
2021/08/03 11:18:08;;;;;;;7.77;7.27;;;20.40;99.90;;;;;;5037858;28;20215;-65
2021/08/03 11:20:34;;;;;;;8.00;7.50;;;20.60;99.90;;;;;;5031544;28;20662;-65
2021/08/03 11:23:08;;;;;;;8.43;7.83;;;20.80;99.90;;;;;;5037352;28;20195;-66
2021/08/03 11:25:35;;;;;;;8.00;7.30;;;21.20;99.90;;;;;;5051040;28;20536;-65
2021/08/03 11:28:11;;;;;;;7.97;7.47;;;21.50;99.90;;;;;;5045431;28;20210;-65
2021/08/03 11:30:38;;;;;;;8.10;7.50;;;21.40;99.90;;;;;;5031563;28;20668;-65
2021/08/03 11:33:07;;;;;;;8.67;8.00;;;21.30;99.90;;;;;;5036942;28;20206;-65
2021/08/03 11:35:33;;;;;;;8.13;7.53;;;21.30;99.90;;;;;;5051642;28;20179;-65
2021/08/03 11:38:16;;;;;;;10.50;9.70;;;21.30;99.90;;;;;;5046671;28;20553;-65
2021/08/03 11:40:42;;;;;;;8.40;7.80;;;21.30;99.90;;;;;;5031430;28;20733;-65
2021/08/03 11:43:08;;;;;;;8.70;7.90;;;21.50;99.90;;;;;;5033862;28;20313;-65
2021/08/03 11:45:36;;;;;;;8.75;8.07;;;22.00;99.90;;;;;;5031598;28;20700;-65
2021/08/03 11:48:05;;;;;;;8.20;7.60;;;22.20;99.90;;;;;;5034768;28;20205;-65
2021/08/03 11:50:32;;;;;;;8.30;7.60;;;22.20;99.90;;;;;;5051206;28;20274;-65
2021/08/03 11:53:07;;;;;;;8.88;8.27;;;22.40;99.90;;;;;;5047978;28;20322;-65
2021/08/03 11:55:34;;;;;;;8.73;8.13;;;22.60;99.90;;;;;;5031533;28;20249;-65
2021/08/03 11:58:02;;;;;;;8.40;7.70;;;22.50;99.90;;;;;;5033478;28;20202;-65
2021/08/03 12:00:27;;;;;;;9.98;9.27;;;22.20;99.90;;;;;;5050917;28;20598;-65
2021/08/03 12:02:58;;;;;;;9.63;8.90;;;21.80;99.90;;;;;;5049746;28;20236;-65
2021/08/03 12:05:35;;;;;;;9.10;8.40;;;21.40;99.90;;;;;;5031374;28;20182;-65
2021/08/03 12:08:08;;;;;;;8.20;7.70;;;21.50;99.90;;;;;;5032055;28;20312;-65
2021/08/03 12:10:37;;;;;;;8.67;8.07;;;21.40;99.90;;;;;;5031063;28;20726;-65
2021/08/03 12:13:07;;;;;;;9.03;8.23;;;21.70;99.90;;;;;;5032240;28;20188;-65
2021/08/03 12:15:54;;;;;;;8.87;8.17;;;22.10;99.90;;;;;;5051348;28;20771;-65
2021/08/03 12:18:20;;;;;;;8.63;7.93;;;22.40;99.90;;;;;;5047718;28;20183;-65
2021/08/03 12:20:49;;;;;;;9.13;8.32;;;22.60;99.90;;;;;;5031532;28;20254;-65
2021/08/03 12:23:19;;;;;;;8.23;7.50;;;22.70;99.90;;;;;;5032670;28;20191;-65
2021/08/03 12:25:55;;;;;;;8.38;7.78;;;22.80;99.90;;;;;;5051309;28;20193;-65
2021/08/03 12:29:00;;;;;;;8.80;7.90;;;23.00;99.90;;;;;;5048359;28;20492;-65
2021/08/03 12:31:43;;;;;;;7.85;7.25;;;23.70;99.90;;;;;;5030022;28;20179;-65
2021/08/03 12:34:10;;;;;;;8.77;7.20;;;24.80;99.90;;;;;;5030848;28;20180;-65
2021/08/03 12:36:44;;;;;;;6.95;6.45;;;25.50;99.90;;;;;;5031305;28;20621;-66
2021/08/03 12:39:19;;;;;;;7.97;7.28;;;25.80;99.90;;;;;;5054841;28;20708;-65
2021/08/03 12:42:06;;;;;;;7.40;6.93;;;25.70;99.90;;;;;;5053230;28;20552;-65
2021/08/03 12:44:35;;;;;;;7.85;7.28;;;25.50;99.90;;;;;;5034727;28;20195;-65
2021/08/03 12:47:10;;;;;;;7.07;6.57;;;25.10;99.90;;;;;;5037326;28;20175;-65